sensor_id;sensor_type;location;lat;lon;timestamp;temperature;humidity
26621;DHT22;14253;44.840;10.444;2023-05-10T00:01:25;15.10;1.00
26621;DHT22;14253;44.840;10.444;2023-05-10T00:03:51;15.10;1.00
26621;DHT22;14253;44.840;10.444;2023-05-10T00:06:17;15.20;1.00
26621;DHT22;14253;44.840;10.444;2023-05-10T00:08:44;15.20;1.00
26621;DHT22;14253;44.840;10.444;2023-05-10T00:11:10;15.10;1.00
26621;DHT22;14253;44.840;10.444;2023-05-10T00:13:36;14.90;1.00
26621;DHT22;14253;44.840;10.444;2023-05-10T00:16:02;14.80;1.00
26621;DHT22;14253;44.840;10.444;2023-05-10T00:18:28;14.80;1.00
26621;DHT22;14253;44.840;10.444;2023-05-10T00:20:54;14.80;1.00
26621;DHT22;14253;44.840;10.444;2023-05-10T00:23:19;14.70;1.00
26621;DHT22;14253;44.840;10.444;2023-05-10T00:25:45;14.70;1.00
26621;DHT22;14253;44.840;10.444;2023-05-10T00:28:11;14.70;1.00
26621;DHT22;14253;44.840;10.444;2023-05-10T00:30:37;14.80;1.00
26621;DHT22;14253;44.840;10.444;2023-05-10T00:33:03;14.80;1.00
26621;DHT22;14253;44.840;10.444;2023-05-10T00:35:29;14.80;1.00
26621;DHT22;14253;44.840;10.444;2023-05-10T00:37:55;14.90;1.00
26621;DHT22;14253;44.840;10.444;2023-05-10T00:40:21;14.90;1.00
26621;DHT22;14253;44.840;10.444;2023-05-10T00:42:52;14.90;1.00
26621;DHT22;14253;44.840;10.444;2023-05-10T00:45:18;14.90;1.00
26621;DHT22;14253;44.840;10.444;2023-05-10T00:47:43;14.90;1.00
26621;DHT22;14253;44.840;10.444;2023-05-10T00:50:10;15.00;1.00
26621;DHT22;14253;44.840;10.444;2023-05-10T00:52:37;14.90;1.00
26621;DHT22;14253;44.840;10.444;2023-05-10T00:55:03;14.80;1.00
26621;DHT22;14253;44.840;10.444;2023-05-10T00:57:31;14.80;1.00
26621;DHT22;14253;44.840;10.444;2023-05-10T00:59:57;14.70;1.00
26621;DHT22;14253;44.840;10.444;2023-05-10T01:02:24;14.60;1.00
26621;DHT22;14253;44.840;10.444;2023-05-10T01:04:51;14.60;1.00
26621;DHT22;14253;44.840;10.444;2023-05-10T01:07:17;14.70;1.00
26621;DHT22;14253;44.840;10.444;2023-05-10T01:09:43;14.70;1.00
26621;DHT22;14253;44.840;10.444;2023-05-10T01:12:11;14.60;1.00
26621;DHT22;14253;44.840;10.444;2023-05-10T01:14:37;14.60;1.00
26621;DHT22;14253;44.840;10.444;2023-05-10T01:17:04;14.50;1.00
26621;DHT22;14253;44.840;10.444;2023-05-10T01:19:31;14.50;1.00
26621;DHT22;14253;44.840;10.444;2023-05-10T01:32:36;14.40;1.00
26621;DHT22;14253;44.840;10.444;2023-05-10T01:37:45;14.50;1.00
26621;DHT22;14253;44.840;10.444;2023-05-10T01:40:32;14.50;1.00
26621;DHT22;14253;44.840;10.444;2023-05-10T01:43:04;14.50;1.00
26621;DHT22;14253;44.840;10.444;2023-05-10T01:45:39;14.50;1.00
26621;DHT22;14253;44.840;10.444;2023-05-10T01:48:09;14.40;1.00
26621;DHT22;14253;44.840;10.444;2023-05-10T01:50:38;14.50;1.00
26621;DHT22;14253;44.840;10.444;2023-05-10T01:53:10;14.50;1.00
26621;DHT22;14253;44.840;10.444;2023-05-10T01:55:44;14.50;1.00
26621;DHT22;14253;44.840;10.444;2023-05-10T01:58:32;14.50;1.00
26621;DHT22;14253;44.840;10.444;2023-05-10T02:01:01;14.50;1.00
26621;DHT22;14253;44.840;10.444;2023-05-10T02:03:31;14.50;1.00
26621;DHT22;14253;44.840;10.444;2023-05-10T02:05:58;14.50;1.00
26621;DHT22;14253;44.840;10.444;2023-05-10T02:08:25;14.50;1.00
26621;DHT22;14253;44.840;10.444;2023-05-10T02:10:54;14.50;1.00
26621;DHT22;14253;44.840;10.444;2023-05-10T02:13:23;14.50;1.00
26621;DHT22;14253;44.840;10.444;2023-05-10T02:15:50;14.50;1.00
26621;DHT22;14253;44.840;10.444;2023-05-10T02:18:18;14.40;1.00
26621;DHT22;14253;44.840;10.444;2023-05-10T02:20:45;14.40;1.00
26621;DHT22;14253;44.840;10.444;2023-05-10T02:23:13;14.30;1.00
26621;DHT22;14253;44.840;10.444;2023-05-10T02:25:39;14.20;1.00
26621;DHT22;14253;44.840;10.444;2023-05-10T02:28:06;14.20;1.00
26621;DHT22;14253;44.840;10.444;2023-05-10T02:30:35;14.10;1.00
26621;DHT22;14253;44.840;10.444;2023-05-10T02:33:03;14.00;1.00
26621;DHT22;14253;44.840;10.444;2023-05-10T02:35:30;14.00;1.00
26621;DHT22;14253;44.840;10.444;2023-05-10T02:37:58;13.90;1.00
26621;DHT22;14253;44.840;10.444;2023-05-10T02:40:26;13.90;1.00
26621;DHT22;14253;44.840;10.444;2023-05-10T02:42:54;13.80;1.00
26621;DHT22;14253;44.840;10.444;2023-05-10T02:45:25;13.80;1.00
26621;DHT22;14253;44.840;10.444;2023-05-10T02:47:52;13.80;1.00
26621;DHT22;14253;44.840;10.444;2023-05-10T02:50:20;13.80;1.00
26621;DHT22;14253;44.840;10.444;2023-05-10T02:52:51;13.70;1.00
26621;DHT22;14253;44.840;10.444;2023-05-10T02:55:21;13.70;1.00
26621;DHT22;14253;44.840;10.444;2023-05-10T02:57:52;13.70;1.00
26621;DHT22;14253;44.840;10.444;2023-05-10T03:00:19;13.70;1.00
26621;DHT22;14253;44.840;10.444;2023-05-10T03:02:45;13.70;1.00
26621;DHT22;14253;44.840;10.444;2023-05-10T03:05:11;13.70;1.00
26621;DHT22;14253;44.840;10.444;2023-05-10T03:07:37;13.70;1.00
26621;DHT22;14253;44.840;10.444;2023-05-10T03:10:03;13.70;1.00
26621;DHT22;14253;44.840;10.444;2023-05-10T03:15:36;13.70;1.00
26621;DHT22;14253;44.840;10.444;2023-05-10T03:18:07;13.70;1.00
26621;DHT22;14253;44.840;10.444;2023-05-10T03:20:50;13.70;1.00
26621;DHT22;14253;44.840;10.444;2023-05-10T03:23:26;13.70;1.00
26621;DHT22;14253;44.840;10.444;2023-05-10T03:25:53;13.70;1.00
26621;DHT22;14253;44.840;10.444;2023-05-10T03:28:20;13.70;1.00
26621;DHT22;14253;44.840;10.444;2023-05-10T03:30:47;13.70;1.00
26621;DHT22;14253;44.840;10.444;2023-05-10T03:33:13;13.60;1.00
26621;DHT22;14253;44.840;10.444;2023-05-10T03:35:42;13.60;1.00
26621;DHT22;14253;44.840;10.444;2023-05-10T03:38:12;13.60;1.00
26621;DHT22;14253;44.840;10.444;2023-05-10T03:40:38;13.70;1.00
26621;DHT22;14253;44.840;10.444;2023-05-10T03:43:04;13.60;1.00
26621;DHT22;14253;44.840;10.444;2023-05-10T03:45:31;13.60;1.00
26621;DHT22;14253;44.840;10.444;2023-05-10T03:47:57;13.60;1.00
26621;DHT22;14253;44.840;10.444;2023-05-10T03:50:24;13.60;1.00
26621;DHT22;14253;44.840;10.444;2023-05-10T03:52:50;13.50;1.00
26621;DHT22;14253;44.840;10.444;2023-05-10T03:55:16;13.50;1.00
26621;DHT22;14253;44.840;10.444;2023-05-10T03:57:42;13.50;1.00
26621;DHT22;14253;44.840;10.444;2023-05-10T04:00:09;13.50;1.00
26621;DHT22;14253;44.840;10.444;2023-05-10T04:02:41;13.40;1.00
26621;DHT22;14253;44.840;10.444;2023-05-10T04:05:11;13.50;1.00
26621;DHT22;14253;44.840;10.444;2023-05-10T04:07:37;13.50;1.00
26621;DHT22;14253;44.840;10.444;2023-05-10T04:10:03;13.50;1.00
26621;DHT22;14253;44.840;10.444;2023-05-10T04:12:29;13.50;1.00
26621;DHT22;14253;44.840;10.444;2023-05-10T04:14:55;13.40;1.00
26621;DHT22;14253;44.840;10.444;2023-05-10T04:17:21;13.50;1.00
26621;DHT22;14253;44.840;10.444;2023-05-10T04:19:47;13.40;1.00
26621;DHT22;14253;44.840;10.444;2023-05-10T04:22:12;13.40;1.00
26621;DHT22;14253;44.840;10.444;2023-05-10T04:24:38;13.40;1.00
26621;DHT22;14253;44.840;10.444;2023-05-10T04:27:04;13.50;1.00
26621;DHT22;14253;44.840;10.444;2023-05-10T04:29:30;13.50;1.00
26621;DHT22;14253;44.840;10.444;2023-05-10T04:31:56;13.50;1.00
26621;DHT22;14253;44.840;10.444;2023-05-10T04:34:25;13.50;1.00
26621;DHT22;14253;44.840;10.444;2023-05-10T04:36:51;13.50;1.00
26621;DHT22;14253;44.840;10.444;2023-05-10T04:39:17;13.40;1.00
26621;DHT22;14253;44.840;10.444;2023-05-10T04:41:43;13.40;1.00
26621;DHT22;14253;44.840;10.444;2023-05-10T04:44:09;13.40;1.00
26621;DHT22;14253;44.840;10.444;2023-05-10T04:46:35;13.40;1.00
26621;DHT22;14253;44.840;10.444;2023-05-10T04:49:01;13.40;1.00
26621;DHT22;14253;44.840;10.444;2023-05-10T04:51:27;13.40;1.00
26621;DHT22;14253;44.840;10.444;2023-05-10T04:53:53;13.50;1.00
26621;DHT22;14253;44.840;10.444;2023-05-10T04:56:19;13.40;1.00
26621;DHT22;14253;44.840;10.444;2023-05-10T04:58:45;13.40;1.00
26621;DHT22;14253;44.840;10.444;2023-05-10T05:01:11;13.30;1.00
26621;DHT22;14253;44.840;10.444;2023-05-10T05:03:37;13.30;1.00
26621;DHT22;14253;44.840;10.444;2023-05-10T05:06:04;13.30;1.00
26621;DHT22;14253;44.840;10.444;2023-05-10T05:08:30;13.20;1.00
26621;DHT22;14253;44.840;10.444;2023-05-10T05:10:55;13.10;1.00
26621;DHT22;14253;44.840;10.444;2023-05-10T05:13:21;13.00;1.00
26621;DHT22;14253;44.840;10.444;2023-05-10T05:15:47;13.10;1.00
26621;DHT22;14253;44.840;10.444;2023-05-10T05:18:13;13.00;1.00
26621;DHT22;14253;44.840;10.444;2023-05-10T05:20:39;12.90;1.00
26621;DHT22;14253;44.840;10.444;2023-05-10T05:23:05;12.90;1.00
26621;DHT22;14253;44.840;10.444;2023-05-10T05:25:31;12.80;1.00
26621;DHT22;14253;44.840;10.444;2023-05-10T05:27:57;12.80;1.00
26621;DHT22;14253;44.840;10.444;2023-05-10T05:30:25;12.80;1.00
26621;DHT22;14253;44.840;10.444;2023-05-10T05:32:51;12.70;1.00
26621;DHT22;14253;44.840;10.444;2023-05-10T05:35:17;12.70;1.00
26621;DHT22;14253;44.840;10.444;2023-05-10T05:37:43;12.70;1.00
26621;DHT22;14253;44.840;10.444;2023-05-10T05:40:12;12.70;1.00
26621;DHT22;14253;44.840;10.444;2023-05-10T05:42:38;12.70;1.00
26621;DHT22;14253;44.840;10.444;2023-05-10T05:45:04;12.70;1.00
26621;DHT22;14253;44.840;10.444;2023-05-10T05:47:31;12.70;1.00
26621;DHT22;14253;44.840;10.444;2023-05-10T05:49:57;12.70;1.00
26621;DHT22;14253;44.840;10.444;2023-05-10T05:52:23;12.60;1.00
26621;DHT22;14253;44.840;10.444;2023-05-10T05:54:49;12.60;1.00
26621;DHT22;14253;44.840;10.444;2023-05-10T05:57:15;12.60;1.00
26621;DHT22;14253;44.840;10.444;2023-05-10T05:59:41;12.60;1.00
26621;DHT22;14253;44.840;10.444;2023-05-10T06:02:08;12.60;1.00
26621;DHT22;14253;44.840;10.444;2023-05-10T06:04:34;12.70;1.00
26621;DHT22;14253;44.840;10.444;2023-05-10T06:07:00;12.70;1.00
26621;DHT22;14253;44.840;10.444;2023-05-10T06:09:27;12.70;1.00
26621;DHT22;14253;44.840;10.444;2023-05-10T06:11:52;12.70;1.00
26621;DHT22;14253;44.840;10.444;2023-05-10T06:14:20;12.80;1.00
26621;DHT22;14253;44.840;10.444;2023-05-10T06:16:46;12.70;1.00
26621;DHT22;14253;44.840;10.444;2023-05-10T06:19:12;12.70;1.00
26621;DHT22;14253;44.840;10.444;2023-05-10T06:21:38;12.80;1.00
26621;DHT22;14253;44.840;10.444;2023-05-10T06:24:05;12.70;1.00
26621;DHT22;14253;44.840;10.444;2023-05-10T06:26:32;12.80;1.00
26621;DHT22;14253;44.840;10.444;2023-05-10T06:28:58;12.90;1.00
26621;DHT22;14253;44.840;10.444;2023-05-10T06:31:24;12.80;1.00
26621;DHT22;14253;44.840;10.444;2023-05-10T06:33:51;12.80;1.00
26621;DHT22;14253;44.840;10.444;2023-05-10T06:36:17;12.80;1.00
26621;DHT22;14253;44.840;10.444;2023-05-10T06:38:44;12.80;1.00
26621;DHT22;14253;44.840;10.444;2023-05-10T06:41:10;12.70;1.00
26621;DHT22;14253;44.840;10.444;2023-05-10T06:43:36;12.70;1.00
26621;DHT22;14253;44.840;10.444;2023-05-10T06:46:05;12.70;1.00
26621;DHT22;14253;44.840;10.444;2023-05-10T06:48:32;12.70;1.00
26621;DHT22;14253;44.840;10.444;2023-05-10T06:50:58;12.60;1.00
26621;DHT22;14253;44.840;10.444;2023-05-10T06:53:26;12.70;1.00
26621;DHT22;14253;44.840;10.444;2023-05-10T06:55:54;12.70;1.00
26621;DHT22;14253;44.840;10.444;2023-05-10T06:58:20;12.70;1.00
26621;DHT22;14253;44.840;10.444;2023-05-10T07:00:47;12.70;1.00
26621;DHT22;14253;44.840;10.444;2023-05-10T07:03:13;12.70;1.00
26621;DHT22;14253;44.840;10.444;2023-05-10T07:05:39;12.70;1.00
26621;DHT22;14253;44.840;10.444;2023-05-10T07:08:05;12.70;1.00
26621;DHT22;14253;44.840;10.444;2023-05-10T07:10:31;12.70;1.00
26621;DHT22;14253;44.840;10.444;2023-05-10T07:12:57;12.60;1.00
26621;DHT22;14253;44.840;10.444;2023-05-10T07:15:23;12.60;1.00
26621;DHT22;14253;44.840;10.444;2023-05-10T07:17:49;12.60;1.00
26621;DHT22;14253;44.840;10.444;2023-05-10T07:20:15;12.60;1.00
26621;DHT22;14253;44.840;10.444;2023-05-10T07:22:41;12.50;1.00
26621;DHT22;14253;44.840;10.444;2023-05-10T07:25:07;12.50;1.00
26621;DHT22;14253;44.840;10.444;2023-05-10T07:27:33;12.50;1.00
26621;DHT22;14253;44.840;10.444;2023-05-10T07:29:59;12.40;1.00
26621;DHT22;14253;44.840;10.444;2023-05-10T07:32:28;12.40;1.00
26621;DHT22;14253;44.840;10.444;2023-05-10T07:34:55;12.50;1.00
26621;DHT22;14253;44.840;10.444;2023-05-10T07:37:21;12.50;1.00
26621;DHT22;14253;44.840;10.444;2023-05-10T07:39:47;12.50;1.00
26621;DHT22;14253;44.840;10.444;2023-05-10T07:50:48;12.30;1.00
26621;DHT22;14253;44.840;10.444;2023-05-10T07:53:14;12.20;1.00
26621;DHT22;14253;44.840;10.444;2023-05-10T07:55:40;12.20;1.00
26621;DHT22;14253;44.840;10.444;2023-05-10T07:58:06;12.20;1.00
26621;DHT22;14253;44.840;10.444;2023-05-10T08:00:32;12.20;1.00
26621;DHT22;14253;44.840;10.444;2023-05-10T08:02:59;12.30;1.00
26621;DHT22;14253;44.840;10.444;2023-05-10T08:05:25;12.30;1.00
26621;DHT22;14253;44.840;10.444;2023-05-10T08:07:51;12.40;1.00
26621;DHT22;14253;44.840;10.444;2023-05-10T08:10:17;12.30;1.00
26621;DHT22;14253;44.840;10.444;2023-05-10T08:12:43;12.30;1.00
26621;DHT22;14253;44.840;10.444;2023-05-10T08:15:09;12.30;1.00
26621;DHT22;14253;44.840;10.444;2023-05-10T08:17:35;12.30;1.00
26621;DHT22;14253;44.840;10.444;2023-05-10T08:20:01;12.30;1.00
26621;DHT22;14253;44.840;10.444;2023-05-10T08:22:30;12.30;1.00
26621;DHT22;14253;44.840;10.444;2023-05-10T08:24:55;12.20;1.00
26621;DHT22;14253;44.840;10.444;2023-05-10T08:27:21;12.20;1.00
26621;DHT22;14253;44.840;10.444;2023-05-10T08:29:47;12.20;1.00
26621;DHT22;14253;44.840;10.444;2023-05-10T08:32:14;12.20;1.00
26621;DHT22;14253;44.840;10.444;2023-05-10T08:34:40;12.20;1.00
26621;DHT22;14253;44.840;10.444;2023-05-10T10:04:41;12.30;1.00
26621;DHT22;14253;44.840;10.444;2023-05-10T10:07:08;12.30;1.00
26621;DHT22;14253;44.840;10.444;2023-05-10T10:09:34;12.30;1.00
26621;DHT22;14253;44.840;10.444;2023-05-10T10:12:02;12.40;1.00
26621;DHT22;14253;44.840;10.444;2023-05-10T10:14:28;12.40;1.00
26621;DHT22;14253;44.840;10.444;2023-05-10T10:16:54;12.40;1.00
26621;DHT22;14253;44.840;10.444;2023-05-10T10:19:21;12.50;1.00
26621;DHT22;14253;44.840;10.444;2023-05-10T10:21:50;12.50;1.00
26621;DHT22;14253;44.840;10.444;2023-05-10T10:24:16;12.40;1.00
26621;DHT22;14253;44.840;10.444;2023-05-10T10:26:43;12.40;1.00
26621;DHT22;14253;44.840;10.444;2023-05-10T10:31:57;12.40;1.00
26621;DHT22;14253;44.840;10.444;2023-05-10T10:34:29;12.50;1.00
26621;DHT22;14253;44.840;10.444;2023-05-10T10:36:57;12.60;1.00
26621;DHT22;14253;44.840;10.444;2023-05-10T10:39:24;12.60;1.00
26621;DHT22;14253;44.840;10.444;2023-05-10T10:41:55;12.70;1.00
26621;DHT22;14253;44.840;10.444;2023-05-10T10:49:49;12.90;1.00
26621;DHT22;14253;44.840;10.444;2023-05-10T10:52:41;12.90;1.00
26621;DHT22;14253;44.840;10.444;2023-05-10T10:57:47;12.90;1.00
26621;DHT22;14253;44.840;10.444;2023-05-10T11:00:30;12.90;1.00
26621;DHT22;14253;44.840;10.444;2023-05-10T11:03:04;12.90;1.00
26621;DHT22;14253;44.840;10.444;2023-05-10T11:05:42;12.80;1.00
26621;DHT22;14253;44.840;10.444;2023-05-10T11:15:58;13.00;1.00
26621;DHT22;14253;44.840;10.444;2023-05-10T11:18:29;13.00;1.00
26621;DHT22;14253;44.840;10.444;2023-05-10T11:21:00;13.10;1.00
26621;DHT22;14253;44.840;10.444;2023-05-10T11:23:33;13.10;1.00
26621;DHT22;14253;44.840;10.444;2023-05-10T11:26:15;13.10;1.00
26621;DHT22;14253;44.840;10.444;2023-05-10T11:28:46;13.10;1.00
26621;DHT22;14253;44.840;10.444;2023-05-10T11:31:16;13.10;1.00
26621;DHT22;14253;44.840;10.444;2023-05-10T11:36:16;13.10;1.00
26621;DHT22;14253;44.840;10.444;2023-05-10T11:38:42;13.10;1.00
26621;DHT22;14253;44.840;10.444;2023-05-10T11:41:09;13.20;1.00
26621;DHT22;14253;44.840;10.444;2023-05-10T11:43:42;13.20;1.00
26621;DHT22;14253;44.840;10.444;2023-05-10T11:46:11;13.20;1.00
26621;DHT22;14253;44.840;10.444;2023-05-10T11:48:41;13.30;1.00
26621;DHT22;14253;44.840;10.444;2023-05-10T11:51:10;13.30;1.00
26621;DHT22;14253;44.840;10.444;2023-05-10T11:53:37;13.30;1.00
26621;DHT22;14253;44.840;10.444;2023-05-10T11:56:06;13.30;1.00
26621;DHT22;14253;44.840;10.444;2023-05-10T11:58:33;13.40;1.00
26621;DHT22;14253;44.840;10.444;2023-05-10T12:00:59;13.50;1.00
26621;DHT22;14253;44.840;10.444;2023-05-10T12:03:27;13.30;1.00
26621;DHT22;14253;44.840;10.444;2023-05-10T12:05:54;13.30;1.00
26621;DHT22;14253;44.840;10.444;2023-05-10T12:08:22;13.30;1.00
26621;DHT22;14253;44.840;10.444;2023-05-10T12:10:48;13.50;1.00
26621;DHT22;14253;44.840;10.444;2023-05-10T12:13:15;13.50;1.00
26621;DHT22;14253;44.840;10.444;2023-05-10T12:15:41;13.50;1.00
26621;DHT22;14253;44.840;10.444;2023-05-10T12:18:14;13.50;1.00
26621;DHT22;14253;44.840;10.444;2023-05-10T12:20:41;13.50;1.00
26621;DHT22;14253;44.840;10.444;2023-05-10T12:23:09;13.50;1.00
26621;DHT22;14253;44.840;10.444;2023-05-10T12:25:37;13.50;1.00
26621;DHT22;14253;44.840;10.444;2023-05-10T12:28:05;13.50;1.00
26621;DHT22;14253;44.840;10.444;2023-05-10T12:30:34;13.50;1.00
26621;DHT22;14253;44.840;10.444;2023-05-10T12:33:10;13.40;1.00
26621;DHT22;14253;44.840;10.444;2023-05-10T12:36:03;13.40;1.00
26621;DHT22;14253;44.840;10.444;2023-05-10T12:38:34;13.50;1.00
26621;DHT22;14253;44.840;10.444;2023-05-10T12:41:02;13.50;1.00
26621;DHT22;14253;44.840;10.444;2023-05-10T12:43:28;13.60;1.00
26621;DHT22;14253;44.840;10.444;2023-05-10T12:45:55;13.60;1.00
26621;DHT22;14253;44.840;10.444;2023-05-10T12:48:21;13.60;1.00
26621;DHT22;14253;44.840;10.444;2023-05-10T12:50:47;13.60;1.00
26621;DHT22;14253;44.840;10.444;2023-05-10T12:53:16;13.60;1.00
26621;DHT22;14253;44.840;10.444;2023-05-10T12:55:43;13.60;1.00
26621;DHT22;14253;44.840;10.444;2023-05-10T12:58:09;13.60;1.00
26621;DHT22;14253;44.840;10.444;2023-05-10T13:00:35;13.60;1.00
26621;DHT22;14253;44.840;10.444;2023-05-10T13:03:04;13.60;1.00
26621;DHT22;14253;44.840;10.444;2023-05-10T13:05:34;13.60;1.00
26621;DHT22;14253;44.840;10.444;2023-05-10T13:08:00;13.70;1.00
26621;DHT22;14253;44.840;10.444;2023-05-10T13:10:27;13.60;1.00
26621;DHT22;14253;44.840;10.444;2023-05-10T13:12:53;13.60;1.00
26621;DHT22;14253;44.840;10.444;2023-05-10T13:15:19;13.70;1.00
26621;DHT22;14253;44.840;10.444;2023-05-10T13:17:45;13.80;1.00
26621;DHT22;14253;44.840;10.444;2023-05-10T13:20:11;13.80;1.00
26621;DHT22;14253;44.840;10.444;2023-05-10T13:22:37;13.80;1.00
26621;DHT22;14253;44.840;10.444;2023-05-10T13:25:03;13.90;1.00
26621;DHT22;14253;44.840;10.444;2023-05-10T13:27:29;13.90;1.00
26621;DHT22;14253;44.840;10.444;2023-05-10T13:29:55;13.90;1.00
26621;DHT22;14253;44.840;10.444;2023-05-10T13:32:21;13.90;1.00
26621;DHT22;14253;44.840;10.444;2023-05-10T13:34:47;13.90;1.00
26621;DHT22;14253;44.840;10.444;2023-05-10T13:37:32;13.90;1.00
26621;DHT22;14253;44.840;10.444;2023-05-10T13:40:01;13.90;1.00
26621;DHT22;14253;44.840;10.444;2023-05-10T13:42:27;13.70;1.00
26621;DHT22;14253;44.840;10.444;2023-05-10T13:44:53;13.70;1.00
26621;DHT22;14253;44.840;10.444;2023-05-10T13:47:19;13.60;1.00
26621;DHT22;14253;44.840;10.444;2023-05-10T13:49:47;13.60;1.00
26621;DHT22;14253;44.840;10.444;2023-05-10T13:52:13;13.60;1.00
26621;DHT22;14253;44.840;10.444;2023-05-10T13:54:39;13.60;1.00
26621;DHT22;14253;44.840;10.444;2023-05-10T13:57:05;13.70;1.00
26621;DHT22;14253;44.840;10.444;2023-05-10T13:59:32;13.70;1.00
26621;DHT22;14253;44.840;10.444;2023-05-10T14:01:58;13.80;1.00
26621;DHT22;14253;44.840;10.444;2023-05-10T14:04:24;13.90;1.00
26621;DHT22;14253;44.840;10.444;2023-05-10T14:06:50;13.90;1.00
26621;DHT22;14253;44.840;10.444;2023-05-10T14:09:18;13.90;1.00
26621;DHT22;14253;44.840;10.444;2023-05-10T14:11:45;13.90;1.00
26621;DHT22;14253;44.840;10.444;2023-05-10T14:14:11;13.90;1.00
26621;DHT22;14253;44.840;10.444;2023-05-10T14:16:41;13.90;1.00
26621;DHT22;14253;44.840;10.444;2023-05-10T14:19:07;14.00;1.00
26621;DHT22;14253;44.840;10.444;2023-05-10T14:21:33;14.10;1.00
26621;DHT22;14253;44.840;10.444;2023-05-10T14:23:59;14.10;1.00
26621;DHT22;14253;44.840;10.444;2023-05-10T14:26:25;14.20;1.00
26621;DHT22;14253;44.840;10.444;2023-05-10T14:28:54;14.20;1.00
26621;DHT22;14253;44.840;10.444;2023-05-10T14:31:20;14.10;1.00
26621;DHT22;14253;44.840;10.444;2023-05-10T14:33:46;14.00;1.00
26621;DHT22;14253;44.840;10.444;2023-05-10T14:36:13;14.00;1.00
26621;DHT22;14253;44.840;10.444;2023-05-10T14:38:40;13.90;1.00
26621;DHT22;14253;44.840;10.444;2023-05-10T14:41:06;13.90;1.00
26621;DHT22;14253;44.840;10.444;2023-05-10T14:43:32;13.80;1.00
26621;DHT22;14253;44.840;10.444;2023-05-10T14:45:58;13.80;1.00
26621;DHT22;14253;44.840;10.444;2023-05-10T14:48:24;13.70;1.00
26621;DHT22;14253;44.840;10.444;2023-05-10T14:50:50;13.70;1.00
26621;DHT22;14253;44.840;10.444;2023-05-10T14:53:18;13.70;1.00
26621;DHT22;14253;44.840;10.444;2023-05-10T14:55:44;13.70;1.00
26621;DHT22;14253;44.840;10.444;2023-05-10T14:58:09;13.70;1.00
26621;DHT22;14253;44.840;10.444;2023-05-10T15:00:35;13.70;1.00
26621;DHT22;14253;44.840;10.444;2023-05-10T15:03:01;13.70;1.00
26621;DHT22;14253;44.840;10.444;2023-05-10T15:05:27;13.70;1.00
26621;DHT22;14253;44.840;10.444;2023-05-10T15:07:53;13.60;1.00
26621;DHT22;14253;44.840;10.444;2023-05-10T15:10:19;13.70;1.00
26621;DHT22;14253;44.840;10.444;2023-05-10T15:12:45;13.70;1.00
26621;DHT22;14253;44.840;10.444;2023-05-10T15:15:11;13.60;1.00
26621;DHT22;14253;44.840;10.444;2023-05-10T15:17:37;13.60;1.00
26621;DHT22;14253;44.840;10.444;2023-05-10T15:20:03;13.60;1.00
26621;DHT22;14253;44.840;10.444;2023-05-10T15:22:30;13.50;1.00
26621;DHT22;14253;44.840;10.444;2023-05-10T15:25:00;13.50;1.00
26621;DHT22;14253;44.840;10.444;2023-05-10T15:27:27;13.50;1.00
26621;DHT22;14253;44.840;10.444;2023-05-10T15:29:53;13.50;1.00
26621;DHT22;14253;44.840;10.444;2023-05-10T15:32:19;13.50;1.00
26621;DHT22;14253;44.840;10.444;2023-05-10T15:34:45;13.50;1.00
26621;DHT22;14253;44.840;10.444;2023-05-10T15:37:11;13.40;1.00
26621;DHT22;14253;44.840;10.444;2023-05-10T15:39:37;13.40;1.00
26621;DHT22;14253;44.840;10.444;2023-05-10T15:42:03;13.60;1.00
26621;DHT22;14253;44.840;10.444;2023-05-10T15:44:29;13.70;1.00
26621;DHT22;14253;44.840;10.444;2023-05-10T15:46:55;13.70;1.00
26621;DHT22;14253;44.840;10.444;2023-05-10T15:49:21;13.70;1.00
26621;DHT22;14253;44.840;10.444;2023-05-10T15:51:47;13.70;1.00
26621;DHT22;14253;44.840;10.444;2023-05-10T15:54:13;13.70;1.00
26621;DHT22;14253;44.840;10.444;2023-05-10T15:56:39;13.70;1.00
26621;DHT22;14253;44.840;10.444;2023-05-10T15:59:06;13.80;1.00
26621;DHT22;14253;44.840;10.444;2023-05-10T16:01:33;13.90;1.00
26621;DHT22;14253;44.840;10.444;2023-05-10T16:03:59;13.90;1.00
26621;DHT22;14253;44.840;10.444;2023-05-10T16:06:25;13.80;1.00
26621;DHT22;14253;44.840;10.444;2023-05-10T16:08:51;13.80;1.00
26621;DHT22;14253;44.840;10.444;2023-05-10T16:11:17;13.80;1.00
26621;DHT22;14253;44.840;10.444;2023-05-10T16:13:43;13.80;1.00
26621;DHT22;14253;44.840;10.444;2023-05-10T16:16:09;13.90;1.00
26621;DHT22;14253;44.840;10.444;2023-05-10T16:18:35;13.80;1.00
26621;DHT22;14253;44.840;10.444;2023-05-10T16:21:01;13.80;1.00
26621;DHT22;14253;44.840;10.444;2023-05-10T16:23:27;13.80;1.00
26621;DHT22;14253;44.840;10.444;2023-05-10T16:25:54;13.80;1.00
26621;DHT22;14253;44.840;10.444;2023-05-10T16:28:20;13.80;1.00
26621;DHT22;14253;44.840;10.444;2023-05-10T16:30:46;13.90;1.00
26621;DHT22;14253;44.840;10.444;2023-05-10T16:33:13;13.90;1.00
26621;DHT22;14253;44.840;10.444;2023-05-10T16:35:39;14.00;1.00
26621;DHT22;14253;44.840;10.444;2023-05-10T16:38:05;14.00;1.00
26621;DHT22;14253;44.840;10.444;2023-05-10T16:40:31;14.00;1.00
26621;DHT22;14253;44.840;10.444;2023-05-10T16:42:57;13.90;1.00
26621;DHT22;14253;44.840;10.444;2023-05-10T16:45:23;13.90;1.00
26621;DHT22;14253;44.840;10.444;2023-05-10T16:47:51;13.90;1.00
26621;DHT22;14253;44.840;10.444;2023-05-10T16:50:18;13.90;1.00
26621;DHT22;14253;44.840;10.444;2023-05-10T16:52:44;13.90;1.00
26621;DHT22;14253;44.840;10.444;2023-05-10T16:55:10;13.90;1.00
26621;DHT22;14253;44.840;10.444;2023-05-10T16:57:36;13.90;1.00
26621;DHT22;14253;44.840;10.444;2023-05-10T17:00:02;13.90;1.00
26621;DHT22;14253;44.840;10.444;2023-05-10T17:02:29;13.90;1.00
26621;DHT22;14253;44.840;10.444;2023-05-10T17:04:55;13.80;1.00
26621;DHT22;14253;44.840;10.444;2023-05-10T17:07:21;13.80;1.00
26621;DHT22;14253;44.840;10.444;2023-05-10T17:09:47;13.70;1.00
26621;DHT22;14253;44.840;10.444;2023-05-10T17:12:14;13.70;1.00
26621;DHT22;14253;44.840;10.444;2023-05-10T17:14:40;13.70;1.00
26621;DHT22;14253;44.840;10.444;2023-05-10T17:17:06;13.70;1.00
26621;DHT22;14253;44.840;10.444;2023-05-10T17:19:32;13.70;1.00
26621;DHT22;14253;44.840;10.444;2023-05-10T17:21:58;13.70;1.00
26621;DHT22;14253;44.840;10.444;2023-05-10T17:24:24;13.70;1.00
26621;DHT22;14253;44.840;10.444;2023-05-10T17:26:54;13.70;1.00
26621;DHT22;14253;44.840;10.444;2023-05-10T17:29:22;13.70;1.00
26621;DHT22;14253;44.840;10.444;2023-05-10T17:31:48;13.70;1.00
26621;DHT22;14253;44.840;10.444;2023-05-10T17:34:14;13.70;1.00
26621;DHT22;14253;44.840;10.444;2023-05-10T17:36:40;13.70;1.00
26621;DHT22;14253;44.840;10.444;2023-05-10T17:39:06;13.60;1.00
26621;DHT22;14253;44.840;10.444;2023-05-10T17:41:32;13.70;1.00
26621;DHT22;14253;44.840;10.444;2023-05-10T17:43:58;13.60;1.00